sensor_id;sensor_type;location;lat;lon;timestamp;temperature;humidity
31387;DHT22;69978;50.096;8.448;2023-06-04T00:00:22;15.60;99.90
31387;DHT22;69978;50.096;8.448;2023-06-04T00:02:47;15.60;99.90
31387;DHT22;69978;50.096;8.448;2023-06-04T00:05:13;15.50;99.90
31387;DHT22;69978;50.096;8.448;2023-06-04T00:07:38;15.50;99.90
31387;DHT22;69978;50.096;8.448;2023-06-04T00:10:05;15.50;99.90
31387;DHT22;69978;50.096;8.448;2023-06-04T00:12:30;15.40;99.90
31387;DHT22;69978;50.096;8.448;2023-06-04T00:14:56;15.40;99.90
31387;DHT22;69978;50.096;8.448;2023-06-04T00:17:21;15.40;99.90
31387;DHT22;69978;50.096;8.448;2023-06-04T00:19:47;15.30;99.90
31387;DHT22;69978;50.096;8.448;2023-06-04T00:22:12;15.40;99.90
31387;DHT22;69978;50.096;8.448;2023-06-04T00:24:39;15.30;99.90
31387;DHT22;69978;50.096;8.448;2023-06-04T00:27:07;15.20;99.90
31387;DHT22;69978;50.096;8.448;2023-06-04T00:29:33;15.20;99.90
31387;DHT22;69978;50.096;8.448;2023-06-04T00:31:58;15.20;99.90
31387;DHT22;69978;50.096;8.448;2023-06-04T00:34:24;15.20;99.90
31387;DHT22;69978;50.096;8.448;2023-06-04T00:36:49;15.20;99.90
31387;DHT22;69978;50.096;8.448;2023-06-04T00:39:15;15.10;99.90
31387;DHT22;69978;50.096;8.448;2023-06-04T00:41:40;15.10;99.90
31387;DHT22;69978;50.096;8.448;2023-06-04T00:44:06;15.00;99.90
31387;DHT22;69978;50.096;8.448;2023-06-04T00:46:32;15.00;99.90
31387;DHT22;69978;50.096;8.448;2023-06-04T00:48:58;15.00;99.90
31387;DHT22;69978;50.096;8.448;2023-06-04T00:51:25;14.90;99.90
31387;DHT22;69978;50.096;8.448;2023-06-04T00:53:52;15.00;99.90
31387;DHT22;69978;50.096;8.448;2023-06-04T00:56:18;14.90;99.90
31387;DHT22;69978;50.096;8.448;2023-06-04T00:58:44;14.90;99.90
31387;DHT22;69978;50.096;8.448;2023-06-04T01:01:26;14.90;99.90
31387;DHT22;69978;50.096;8.448;2023-06-04T01:03:54;14.90;99.90
31387;DHT22;69978;50.096;8.448;2023-06-04T01:06:43;14.80;99.90
31387;DHT22;69978;50.096;8.448;2023-06-04T01:09:10;14.80;99.90
31387;DHT22;69978;50.096;8.448;2023-06-04T01:11:37;14.70;99.90
31387;DHT22;69978;50.096;8.448;2023-06-04T01:14:04;14.70;99.90
31387;DHT22;69978;50.096;8.448;2023-06-04T01:16:45;14.70;99.90
31387;DHT22;69978;50.096;8.448;2023-06-04T01:22:03;14.70;99.90
31387;DHT22;69978;50.096;8.448;2023-06-04T01:24:34;14.70;99.90
31387;DHT22;69978;50.096;8.448;2023-06-04T01:27:03;14.60;99.90
31387;DHT22;69978;50.096;8.448;2023-06-04T01:29:30;14.60;99.90
31387;DHT22;69978;50.096;8.448;2023-06-04T01:31:56;14.60;99.90
31387;DHT22;69978;50.096;8.448;2023-06-04T01:34:23;14.60;99.90
31387;DHT22;69978;50.096;8.448;2023-06-04T01:36:48;14.60;99.90
31387;DHT22;69978;50.096;8.448;2023-06-04T01:39:14;14.50;99.90
31387;DHT22;69978;50.096;8.448;2023-06-04T01:41:39;14.50;99.90
31387;DHT22;69978;50.096;8.448;2023-06-04T01:44:05;14.50;99.90
31387;DHT22;69978;50.096;8.448;2023-06-04T01:46:30;14.60;99.90
31387;DHT22;69978;50.096;8.448;2023-06-04T01:48:56;14.50;99.90
31387;DHT22;69978;50.096;8.448;2023-06-04T01:51:22;14.50;99.90
31387;DHT22;69978;50.096;8.448;2023-06-04T01:53:47;14.50;99.90
31387;DHT22;69978;50.096;8.448;2023-06-04T01:56:13;14.40;99.90
31387;DHT22;69978;50.096;8.448;2023-06-04T01:58:39;14.40;99.90
31387;DHT22;69978;50.096;8.448;2023-06-04T02:01:05;14.40;99.90
31387;DHT22;69978;50.096;8.448;2023-06-04T02:03:32;14.30;99.90
31387;DHT22;69978;50.096;8.448;2023-06-04T02:06:03;14.30;99.90
31387;DHT22;69978;50.096;8.448;2023-06-04T02:08:29;14.40;99.90
31387;DHT22;69978;50.096;8.448;2023-06-04T02:10:56;14.30;99.90
31387;DHT22;69978;50.096;8.448;2023-06-04T02:13:21;14.30;99.90
31387;DHT22;69978;50.096;8.448;2023-06-04T02:15:47;14.30;99.90
31387;DHT22;69978;50.096;8.448;2023-06-04T02:18:17;14.30;99.90
31387;DHT22;69978;50.096;8.448;2023-06-04T02:20:44;14.20;99.90
31387;DHT22;69978;50.096;8.448;2023-06-04T02:23:11;14.20;99.90
31387;DHT22;69978;50.096;8.448;2023-06-04T02:25:36;14.20;99.90
31387;DHT22;69978;50.096;8.448;2023-06-04T02:28:02;14.10;99.90
31387;DHT22;69978;50.096;8.448;2023-06-04T02:30:27;14.20;99.90
31387;DHT22;69978;50.096;8.448;2023-06-04T02:32:53;14.10;99.90
31387;DHT22;69978;50.096;8.448;2023-06-04T02:35:20;14.10;99.90
31387;DHT22;69978;50.096;8.448;2023-06-04T02:37:51;14.10;99.90
31387;DHT22;69978;50.096;8.448;2023-06-04T02:40:16;14.10;99.90
31387;DHT22;69978;50.096;8.448;2023-06-04T02:42:42;14.10;99.90
31387;DHT22;69978;50.096;8.448;2023-06-04T02:45:09;14.00;99.90
31387;DHT22;69978;50.096;8.448;2023-06-04T02:47:35;14.00;99.90
31387;DHT22;69978;50.096;8.448;2023-06-04T02:50:00;14.00;99.90
31387;DHT22;69978;50.096;8.448;2023-06-04T02:52:26;14.00;99.90
31387;DHT22;69978;50.096;8.448;2023-06-04T02:54:51;14.00;99.90
31387;DHT22;69978;50.096;8.448;2023-06-04T02:57:17;14.00;99.90
31387;DHT22;69978;50.096;8.448;2023-06-04T02:59:43;14.00;99.90
31387;DHT22;69978;50.096;8.448;2023-06-04T03:02:08;14.00;99.90
31387;DHT22;69978;50.096;8.448;2023-06-04T03:04:34;13.90;99.90
31387;DHT22;69978;50.096;8.448;2023-06-04T03:07:04;13.90;99.90
31387;DHT22;69978;50.096;8.448;2023-06-04T03:09:30;13.90;99.90
31387;DHT22;69978;50.096;8.448;2023-06-04T03:12:03;13.90;99.90
31387;DHT22;69978;50.096;8.448;2023-06-04T03:14:29;14.00;99.90
31387;DHT22;69978;50.096;8.448;2023-06-04T03:17:00;13.90;99.90
31387;DHT22;69978;50.096;8.448;2023-06-04T03:19:35;13.90;99.90
31387;DHT22;69978;50.096;8.448;2023-06-04T03:22:02;13.90;99.90
31387;DHT22;69978;50.096;8.448;2023-06-04T03:24:34;13.90;99.90
31387;DHT22;69978;50.096;8.448;2023-06-04T03:27:00;14.00;99.90
31387;DHT22;69978;50.096;8.448;2023-06-04T03:29:26;14.00;99.90
31387;DHT22;69978;50.096;8.448;2023-06-04T03:31:52;14.00;99.90
31387;DHT22;69978;50.096;8.448;2023-06-04T03:34:18;13.90;99.90
31387;DHT22;69978;50.096;8.448;2023-06-04T03:36:43;13.90;99.90
31387;DHT22;69978;50.096;8.448;2023-06-04T03:39:09;13.90;99.90
31387;DHT22;69978;50.096;8.448;2023-06-04T03:41:35;13.90;99.90
31387;DHT22;69978;50.096;8.448;2023-06-04T03:44:00;13.90;99.90
31387;DHT22;69978;50.096;8.448;2023-06-04T03:46:26;13.90;99.90
31387;DHT22;69978;50.096;8.448;2023-06-04T03:48:54;13.80;99.90
31387;DHT22;69978;50.096;8.448;2023-06-04T03:51:20;13.80;99.90
31387;DHT22;69978;50.096;8.448;2023-06-04T03:53:45;13.80;99.90
31387;DHT22;69978;50.096;8.448;2023-06-04T03:56:11;13.80;99.90
31387;DHT22;69978;50.096;8.448;2023-06-04T03:58:36;13.90;99.90
31387;DHT22;69978;50.096;8.448;2023-06-04T04:01:02;13.90;99.90
31387;DHT22;69978;50.096;8.448;2023-06-04T04:03:30;13.90;99.90
31387;DHT22;69978;50.096;8.448;2023-06-04T04:05:57;13.90;99.90
31387;DHT22;69978;50.096;8.448;2023-06-04T04:08:23;13.90;99.90
31387;DHT22;69978;50.096;8.448;2023-06-04T04:10:49;13.90;99.90
31387;DHT22;69978;50.096;8.448;2023-06-04T04:13:14;13.90;99.90
31387;DHT22;69978;50.096;8.448;2023-06-04T04:15:40;13.90;99.90
31387;DHT22;69978;50.096;8.448;2023-06-04T04:18:06;13.90;99.90
31387;DHT22;69978;50.096;8.448;2023-06-04T04:20:33;13.90;99.90
31387;DHT22;69978;50.096;8.448;2023-06-04T04:22:59;13.90;99.90
31387;DHT22;69978;50.096;8.448;2023-06-04T04:25:24;14.00;99.90
31387;DHT22;69978;50.096;8.448;2023-06-04T04:27:50;14.00;99.90
31387;DHT22;69978;50.096;8.448;2023-06-04T04:30:16;13.90;99.90
31387;DHT22;69978;50.096;8.448;2023-06-04T04:32:42;13.90;99.90
31387;DHT22;69978;50.096;8.448;2023-06-04T04:35:14;13.90;99.90
31387;DHT22;69978;50.096;8.448;2023-06-04T04:37:40;14.00;99.90
31387;DHT22;69978;50.096;8.448;2023-06-04T04:40:08;14.00;99.90
31387;DHT22;69978;50.096;8.448;2023-06-04T04:42:35;14.00;99.90
31387;DHT22;69978;50.096;8.448;2023-06-04T04:45:01;14.00;99.90
31387;DHT22;69978;50.096;8.448;2023-06-04T04:47:27;14.10;99.90
31387;DHT22;69978;50.096;8.448;2023-06-04T04:49:52;14.10;99.90
31387;DHT22;69978;50.096;8.448;2023-06-04T04:52:18;14.20;99.90
31387;DHT22;69978;50.096;8.448;2023-06-04T04:54:43;14.20;99.90
31387;DHT22;69978;50.096;8.448;2023-06-04T04:57:09;14.20;99.90
31387;DHT22;69978;50.096;8.448;2023-06-04T04:59:34;14.20;99.90
31387;DHT22;69978;50.096;8.448;2023-06-04T05:02:00;14.20;99.90
31387;DHT22;69978;50.096;8.448;2023-06-04T05:04:26;14.30;99.90
31387;DHT22;69978;50.096;8.448;2023-06-04T05:06:51;14.30;99.90
31387;DHT22;69978;50.096;8.448;2023-06-04T05:09:17;14.30;99.90
31387;DHT22;69978;50.096;8.448;2023-06-04T05:11:43;14.30;99.90
31387;DHT22;69978;50.096;8.448;2023-06-04T05:14:08;14.30;99.90
31387;DHT22;69978;50.096;8.448;2023-06-04T05:16:34;14.30;99.90
31387;DHT22;69978;50.096;8.448;2023-06-04T05:19:01;14.30;99.90
31387;DHT22;69978;50.096;8.448;2023-06-04T05:21:27;14.30;99.90
31387;DHT22;69978;50.096;8.448;2023-06-04T05:23:54;14.20;99.90
31387;DHT22;69978;50.096;8.448;2023-06-04T05:26:20;14.30;99.90
31387;DHT22;69978;50.096;8.448;2023-06-04T05:28:53;14.20;99.90
31387;DHT22;69978;50.096;8.448;2023-06-04T05:31:19;14.30;99.90
31387;DHT22;69978;50.096;8.448;2023-06-04T05:33:44;14.30;99.90
31387;DHT22;69978;50.096;8.448;2023-06-04T05:36:10;14.30;99.90
31387;DHT22;69978;50.096;8.448;2023-06-04T05:38:36;14.40;99.90
31387;DHT22;69978;50.096;8.448;2023-06-04T05:41:02;14.40;99.90
31387;DHT22;69978;50.096;8.448;2023-06-04T05:43:27;14.50;99.90
31387;DHT22;69978;50.096;8.448;2023-06-04T05:45:53;14.60;99.90
31387;DHT22;69978;50.096;8.448;2023-06-04T05:48:18;14.60;99.90
31387;DHT22;69978;50.096;8.448;2023-06-04T05:50:44;14.70;99.90
31387;DHT22;69978;50.096;8.448;2023-06-04T05:53:10;14.70;99.90
31387;DHT22;69978;50.096;8.448;2023-06-04T05:55:36;14.80;99.90
31387;DHT22;69978;50.096;8.448;2023-06-04T05:58:01;14.80;99.90
31387;DHT22;69978;50.096;8.448;2023-06-04T06:00:27;14.90;99.90
31387;DHT22;69978;50.096;8.448;2023-06-04T06:02:53;14.90;99.90
31387;DHT22;69978;50.096;8.448;2023-06-04T06:05:19;15.00;99.90
31387;DHT22;69978;50.096;8.448;2023-06-04T06:07:45;15.10;99.90
31387;DHT22;69978;50.096;8.448;2023-06-04T06:10:11;15.20;99.90
31387;DHT22;69978;50.096;8.448;2023-06-04T06:12:37;15.20;99.90
31387;DHT22;69978;50.096;8.448;2023-06-04T06:15:03;15.30;99.90
31387;DHT22;69978;50.096;8.448;2023-06-04T06:17:29;15.40;99.90
31387;DHT22;69978;50.096;8.448;2023-06-04T06:19:55;15.50;99.90
31387;DHT22;69978;50.096;8.448;2023-06-04T06:22:21;15.60;99.90
31387;DHT22;69978;50.096;8.448;2023-06-04T06:24:49;15.70;99.90
31387;DHT22;69978;50.096;8.448;2023-06-04T06:27:15;15.80;99.90
31387;DHT22;69978;50.096;8.448;2023-06-04T06:29:44;15.90;99.90
31387;DHT22;69978;50.096;8.448;2023-06-04T06:32:10;16.00;99.90
31387;DHT22;69978;50.096;8.448;2023-06-04T06:34:36;16.10;99.90
31387;DHT22;69978;50.096;8.448;2023-06-04T06:37:02;16.20;99.90
31387;DHT22;69978;50.096;8.448;2023-06-04T06:39:28;16.30;99.90
31387;DHT22;69978;50.096;8.448;2023-06-04T06:41:54;16.40;99.90
31387;DHT22;69978;50.096;8.448;2023-06-04T06:44:19;16.50;99.90
31387;DHT22;69978;50.096;8.448;2023-06-04T06:46:45;16.60;99.90
31387;DHT22;69978;50.096;8.448;2023-06-04T06:49:10;16.60;99.90
31387;DHT22;69978;50.096;8.448;2023-06-04T06:51:36;16.70;99.90
31387;DHT22;69978;50.096;8.448;2023-06-04T06:54:01;16.80;99.90
31387;DHT22;69978;50.096;8.448;2023-06-04T06:56:27;16.80;99.90
31387;DHT22;69978;50.096;8.448;2023-06-04T06:58:53;16.90;99.90
31387;DHT22;69978;50.096;8.448;2023-06-04T07:01:18;17.00;99.90
31387;DHT22;69978;50.096;8.448;2023-06-04T07:03:44;17.00;99.90
31387;DHT22;69978;50.096;8.448;2023-06-04T07:06:09;17.10;99.90
31387;DHT22;69978;50.096;8.448;2023-06-04T07:08:35;17.10;99.90
31387;DHT22;69978;50.096;8.448;2023-06-04T07:11:02;17.20;99.90
31387;DHT22;69978;50.096;8.448;2023-06-04T07:13:28;17.20;99.90
31387;DHT22;69978;50.096;8.448;2023-06-04T07:15:54;17.20;99.90
31387;DHT22;69978;50.096;8.448;2023-06-04T07:18:19;17.30;99.90
31387;DHT22;69978;50.096;8.448;2023-06-04T07:20:45;17.40;99.90
31387;DHT22;69978;50.096;8.448;2023-06-04T07:23:11;17.50;99.90
31387;DHT22;69978;50.096;8.448;2023-06-04T07:25:36;17.60;99.90
31387;DHT22;69978;50.096;8.448;2023-06-04T07:28:02;17.70;99.90
31387;DHT22;69978;50.096;8.448;2023-06-04T07:30:30;17.80;99.90
31387;DHT22;69978;50.096;8.448;2023-06-04T07:32:58;17.90;99.90
31387;DHT22;69978;50.096;8.448;2023-06-04T07:35:24;17.90;99.90
31387;DHT22;69978;50.096;8.448;2023-06-04T07:37:50;18.00;99.90
31387;DHT22;69978;50.096;8.448;2023-06-04T07:40:16;18.10;99.90
31387;DHT22;69978;50.096;8.448;2023-06-04T07:42:42;18.20;99.90
31387;DHT22;69978;50.096;8.448;2023-06-04T07:45:09;18.30;99.90
31387;DHT22;69978;50.096;8.448;2023-06-04T07:47:38;18.40;99.90
31387;DHT22;69978;50.096;8.448;2023-06-04T07:50:04;18.50;99.90
31387;DHT22;69978;50.096;8.448;2023-06-04T07:52:30;18.60;99.90
31387;DHT22;69978;50.096;8.448;2023-06-04T07:54:56;18.70;99.90
31387;DHT22;69978;50.096;8.448;2023-06-04T07:57:22;18.80;99.90
31387;DHT22;69978;50.096;8.448;2023-06-04T07:59:48;18.90;99.90
31387;DHT22;69978;50.096;8.448;2023-06-04T08:02:13;19.00;99.90
31387;DHT22;69978;50.096;8.448;2023-06-04T08:04:40;19.00;99.90
31387;DHT22;69978;50.096;8.448;2023-06-04T08:07:06;19.10;99.90
31387;DHT22;69978;50.096;8.448;2023-06-04T08:09:31;19.10;99.90
31387;DHT22;69978;50.096;8.448;2023-06-04T08:11:57;19.20;99.90
31387;DHT22;69978;50.096;8.448;2023-06-04T08:14:23;19.30;99.90
31387;DHT22;69978;50.096;8.448;2023-06-04T08:16:52;19.40;99.90
31387;DHT22;69978;50.096;8.448;2023-06-04T08:19:17;19.50;99.90
31387;DHT22;69978;50.096;8.448;2023-06-04T08:21:43;19.60;99.90
31387;DHT22;69978;50.096;8.448;2023-06-04T08:24:10;19.70;99.90
31387;DHT22;69978;50.096;8.448;2023-06-04T08:26:36;19.90;99.90
31387;DHT22;69978;50.096;8.448;2023-06-04T08:29:04;19.90;99.90
31387;DHT22;69978;50.096;8.448;2023-06-04T08:31:31;20.00;99.90
31387;DHT22;69978;50.096;8.448;2023-06-04T08:33:56;20.10;99.90
31387;DHT22;69978;50.096;8.448;2023-06-04T08:36:22;20.30;99.90
31387;DHT22;69978;50.096;8.448;2023-06-04T08:38:48;20.50;99.90
31387;DHT22;69978;50.096;8.448;2023-06-04T08:44:05;20.70;99.90
31387;DHT22;69978;50.096;8.448;2023-06-04T08:46:32;21.00;99.90
31387;DHT22;69978;50.096;8.448;2023-06-04T08:49:00;21.20;99.90
31387;DHT22;69978;50.096;8.448;2023-06-04T08:51:34;21.20;99.90
31387;DHT22;69978;50.096;8.448;2023-06-04T08:54:06;21.40;99.90
31387;DHT22;69978;50.096;8.448;2023-06-04T08:56:33;21.50;99.90
31387;DHT22;69978;50.096;8.448;2023-06-04T08:59:03;21.50;99.90
31387;DHT22;69978;50.096;8.448;2023-06-04T09:01:31;21.70;99.90
31387;DHT22;69978;50.096;8.448;2023-06-04T09:03:58;21.80;99.90
31387;DHT22;69978;50.096;8.448;2023-06-04T09:06:27;22.00;99.90
31387;DHT22;69978;50.096;8.448;2023-06-04T09:08:56;22.20;99.90
31387;DHT22;69978;50.096;8.448;2023-06-04T09:11:26;22.60;99.90
31387;DHT22;69978;50.096;8.448;2023-06-04T09:13:53;22.80;99.90
31387;DHT22;69978;50.096;8.448;2023-06-04T09:16:22;23.00;99.90
31387;DHT22;69978;50.096;8.448;2023-06-04T09:18:48;23.40;99.90
31387;DHT22;69978;50.096;8.448;2023-06-04T09:21:14;23.60;99.90
31387;DHT22;69978;50.096;8.448;2023-06-04T09:23:43;23.60;99.90
31387;DHT22;69978;50.096;8.448;2023-06-04T09:26:10;23.60;99.90
31387;DHT22;69978;50.096;8.448;2023-06-04T09:28:46;23.80;99.90
31387;DHT22;69978;50.096;8.448;2023-06-04T09:31:16;23.90;99.90
31387;DHT22;69978;50.096;8.448;2023-06-04T09:33:46;24.00;99.90
31387;DHT22;69978;50.096;8.448;2023-06-04T09:36:12;24.10;99.90
31387;DHT22;69978;50.096;8.448;2023-06-04T09:38:38;24.30;99.90
31387;DHT22;69978;50.096;8.448;2023-06-04T09:41:04;24.50;99.90
31387;DHT22;69978;50.096;8.448;2023-06-04T09:43:30;24.70;99.90
31387;DHT22;69978;50.096;8.448;2023-06-04T09:46:14;24.70;99.90
31387;DHT22;69978;50.096;8.448;2023-06-04T09:48:41;24.80;99.90
31387;DHT22;69978;50.096;8.448;2023-06-04T09:51:15;24.90;99.90
31387;DHT22;69978;50.096;8.448;2023-06-04T09:53:41;25.10;99.90
31387;DHT22;69978;50.096;8.448;2023-06-04T09:56:07;25.20;99.90
31387;DHT22;69978;50.096;8.448;2023-06-04T09:58:34;25.30;99.90
31387;DHT22;69978;50.096;8.448;2023-06-04T10:01:03;25.40;99.90
31387;DHT22;69978;50.096;8.448;2023-06-04T10:03:33;25.50;99.90
31387;DHT22;69978;50.096;8.448;2023-06-04T10:06:05;25.60;99.90
31387;DHT22;69978;50.096;8.448;2023-06-04T10:08:32;25.90;99.90
31387;DHT22;69978;50.096;8.448;2023-06-04T10:11:02;26.20;99.90
31387;DHT22;69978;50.096;8.448;2023-06-04T10:13:38;26.50;99.90
31387;DHT22;69978;50.096;8.448;2023-06-04T10:16:07;26.70;99.90
31387;DHT22;69978;50.096;8.448;2023-06-04T10:18:33;26.80;99.90
31387;DHT22;69978;50.096;8.448;2023-06-04T10:21:00;27.00;99.90
31387;DHT22;69978;50.096;8.448;2023-06-04T10:23:25;27.00;99.90
31387;DHT22;69978;50.096;8.448;2023-06-04T10:25:52;27.10;99.90
31387;DHT22;69978;50.096;8.448;2023-06-04T10:28:20;27.20;99.90
31387;DHT22;69978;50.096;8.448;2023-06-04T10:30:46;27.20;98.90
31387;DHT22;69978;50.096;8.448;2023-06-04T10:33:15;27.50;99.90
31387;DHT22;69978;50.096;8.448;2023-06-04T10:35:47;27.60;99.90
31387;DHT22;69978;50.096;8.448;2023-06-04T10:38:13;28.00;99.90
31387;DHT22;69978;50.096;8.448;2023-06-04T10:40:40;28.10;99.40
31387;DHT22;69978;50.096;8.448;2023-06-04T10:43:10;28.10;99.00
31387;DHT22;69978;50.096;8.448;2023-06-04T10:45:36;28.20;98.10
31387;DHT22;69978;50.096;8.448;2023-06-04T10:48:03;28.40;97.10
31387;DHT22;69978;50.096;8.448;2023-06-04T10:53:42;28.60;97.40
31387;DHT22;69978;50.096;8.448;2023-06-04T10:56:27;28.70;98.30
31387;DHT22;69978;50.096;8.448;2023-06-04T10:59:17;28.90;98.50
31387;DHT22;69978;50.096;8.448;2023-06-04T11:01:43;29.30;96.70
31387;DHT22;69978;50.096;8.448;2023-06-04T11:04:22;29.40;96.30
31387;DHT22;69978;50.096;8.448;2023-06-04T11:07:03;29.40;95.20
31387;DHT22;69978;50.096;8.448;2023-06-04T11:09:32;29.60;96.80
31387;DHT22;69978;50.096;8.448;2023-06-04T11:11:59;29.40;94.60
31387;DHT22;69978;50.096;8.448;2023-06-04T11:14:27;29.50;94.60
31387;DHT22;69978;50.096;8.448;2023-06-04T11:16:53;29.80;95.50
31387;DHT22;69978;50.096;8.448;2023-06-04T11:19:18;29.90;94.70
31387;DHT22;69978;50.096;8.448;2023-06-04T11:21:45;30.20;92.70
31387;DHT22;69978;50.096;8.448;2023-06-04T11:24:12;30.10;93.00
31387;DHT22;69978;50.096;8.448;2023-06-04T11:26:38;30.10;93.10
31387;DHT22;69978;50.096;8.448;2023-06-04T11:29:08;30.10;92.20
31387;DHT22;69978;50.096;8.448;2023-06-04T11:32:00;30.30;92.90
31387;DHT22;69978;50.096;8.448;2023-06-04T11:34:27;30.70;92.90
31387;DHT22;69978;50.096;8.448;2023-06-04T11:36:53;30.80;91.60
31387;DHT22;69978;50.096;8.448;2023-06-04T11:39:20;30.70;91.60
31387;DHT22;69978;50.096;8.448;2023-06-04T11:41:46;31.00;90.60
31387;DHT22;69978;50.096;8.448;2023-06-04T11:44:12;30.90;91.00
31387;DHT22;69978;50.096;8.448;2023-06-04T11:46:42;31.20;90.50
31387;DHT22;69978;50.096;8.448;2023-06-04T11:49:11;31.10;89.00
31387;DHT22;69978;50.096;8.448;2023-06-04T11:51:38;30.90;89.70
31387;DHT22;69978;50.096;8.448;2023-06-04T11:54:04;31.30;90.70
31387;DHT22;69978;50.096;8.448;2023-06-04T11:56:29;31.50;90.40
31387;DHT22;69978;50.096;8.448;2023-06-04T11:58:55;31.40;89.70
31387;DHT22;69978;50.096;8.448;2023-06-04T12:01:21;31.20;85.90
31387;DHT22;69978;50.096;8.448;2023-06-04T12:03:48;31.30;90.10
31387;DHT22;69978;50.096;8.448;2023-06-04T12:06:18;31.50;89.00
31387;DHT22;69978;50.096;8.448;2023-06-04T12:08:52;31.60;90.60
31387;DHT22;69978;50.096;8.448;2023-06-04T12:11:30;31.60;89.50
31387;DHT22;69978;50.096;8.448;2023-06-04T12:14:00;31.30;86.30
31387;DHT22;69978;50.096;8.448;2023-06-04T12:16:26;31.70;89.70
31387;DHT22;69978;50.096;8.448;2023-06-04T12:19:03;31.80;89.40
31387;DHT22;69978;50.096;8.448;2023-06-04T12:21:29;31.80;87.00
31387;DHT22;69978;50.096;8.448;2023-06-04T12:24:09;31.90;86.30
31387;DHT22;69978;50.096;8.448;2023-06-04T12:26:36;32.00;87.30
31387;DHT22;69978;50.096;8.448;2023-06-04T12:29:11;31.90;86.90
31387;DHT22;69978;50.096;8.448;2023-06-04T12:31:38;31.60;85.00
31387;DHT22;69978;50.096;8.448;2023-06-04T12:34:03;31.60;81.20
31387;DHT22;69978;50.096;8.448;2023-06-04T12:36:29;31.90;84.90
31387;DHT22;69978;50.096;8.448;2023-06-04T12:39:02;32.00;85.80
31387;DHT22;69978;50.096;8.448;2023-06-04T12:41:29;32.10;85.10
31387;DHT22;69978;50.096;8.448;2023-06-04T12:43:55;32.30;82.70
31387;DHT22;69978;50.096;8.448;2023-06-04T12:46:24;32.40;85.50
31387;DHT22;69978;50.096;8.448;2023-06-04T12:48:51;32.60;83.80
31387;DHT22;69978;50.096;8.448;2023-06-04T12:51:18;32.50;83.60
31387;DHT22;69978;50.096;8.448;2023-06-04T12:53:44;32.40;81.40
31387;DHT22;69978;50.096;8.448;2023-06-04T12:56:10;32.50;81.90
31387;DHT22;69978;50.096;8.448;2023-06-04T12:58:36;32.60;82.60
31387;DHT22;69978;50.096;8.448;2023-06-04T13:01:02;32.90;80.20
31387;DHT22;69978;50.096;8.448;2023-06-04T13:03:30;32.80;77.00
31387;DHT22;69978;50.096;8.448;2023-06-04T13:05:56;32.30;78.30
31387;DHT22;69978;50.096;8.448;2023-06-04T13:08:21;32.60;79.70
31387;DHT22;69978;50.096;8.448;2023-06-04T13:10:47;32.70;79.90
31387;DHT22;69978;50.096;8.448;2023-06-04T13:13:14;32.80;75.80
31387;DHT22;69978;50.096;8.448;2023-06-04T13:15:44;32.70;78.10
31387;DHT22;69978;50.096;8.448;2023-06-04T13:18:10;32.70;80.00
31387;DHT22;69978;50.096;8.448;2023-06-04T13:20:36;32.80;79.20
31387;DHT22;69978;50.096;8.448;2023-06-04T13:23:02;32.90;77.60
31387;DHT22;69978;50.096;8.448;2023-06-04T13:25:28;32.70;77.20
31387;DHT22;69978;50.096;8.448;2023-06-04T13:27:54;32.80;79.70
31387;DHT22;69978;50.096;8.448;2023-06-04T13:30:21;32.60;79.90
31387;DHT22;69978;50.096;8.448;2023-06-04T13:32:48;32.80;81.40
31387;DHT22;69978;50.096;8.448;2023-06-04T13:35:13;32.60;79.30
31387;DHT22;69978;50.096;8.448;2023-06-04T13:37:39;33.00;81.10
31387;DHT22;69978;50.096;8.448;2023-06-04T13:40:05;33.30;79.40
31387;DHT22;69978;50.096;8.448;2023-06-04T13:42:31;33.20;78.80
31387;DHT22;69978;50.096;8.448;2023-06-04T13:44:56;32.90;75.00
31387;DHT22;69978;50.096;8.448;2023-06-04T13:47:22;33.00;77.30
31387;DHT22;69978;50.096;8.448;2023-06-04T13:49:48;33.00;76.10
31387;DHT22;69978;50.096;8.448;2023-06-04T13:52:13;33.20;77.40
31387;DHT22;69978;50.096;8.448;2023-06-04T13:54:39;33.20;76.00
31387;DHT22;69978;50.096;8.448;2023-06-04T13:57:06;33.00;75.70
31387;DHT22;69978;50.096;8.448;2023-06-04T13:59:32;33.10;76.80
31387;DHT22;69978;50.096;8.448;2023-06-04T14:01:59;33.00;76.40
31387;DHT22;69978;50.096;8.448;2023-06-04T14:04:24;33.00;76.00
31387;DHT22;69978;50.096;8.448;2023-06-04T14:06:50;32.90;76.20
31387;DHT22;69978;50.096;8.448;2023-06-04T14:09:15;32.90;76.10
31387;DHT22;69978;50.096;8.448;2023-06-04T14:11:41;32.60;73.00
31387;DHT22;69978;50.096;8.448;2023-06-04T14:14:07;32.50;74.50
31387;DHT22;69978;50.096;8.448;2023-06-04T14:16:33;32.40;75.00
31387;DHT22;69978;50.096;8.448;2023-06-04T14:18:59;32.40;75.10
31387;DHT22;69978;50.096;8.448;2023-06-04T14:21:26;32.30;77.10
31387;DHT22;69978;50.096;8.448;2023-06-04T14:23:52;32.30;74.90
31387;DHT22;69978;50.096;8.448;2023-06-04T14:26:18;32.10;76.10
31387;DHT22;69978;50.096;8.448;2023-06-04T14:28:47;32.00;77.50
31387;DHT22;69978;50.096;8.448;2023-06-04T14:31:12;31.80;76.30
31387;DHT22;69978;50.096;8.448;2023-06-04T14:33:38;31.80;77.80
31387;DHT22;69978;50.096;8.448;2023-06-04T14:36:04;31.70;77.40
31387;DHT22;69978;50.096;8.448;2023-06-04T14:38:30;31.50;76.30
31387;DHT22;69978;50.096;8.448;2023-06-04T14:40:55;31.40;76.20
31387;DHT22;69978;50.096;8.448;2023-06-04T14:43:22;31.20;76.90
31387;DHT22;69978;50.096;8.448;2023-06-04T14:45:48;31.00;76.30
31387;DHT22;69978;50.096;8.448;2023-06-04T14:48:14;30.90;76.70
31387;DHT22;69978;50.096;8.448;2023-06-04T14:50:39;30.60;75.00
31387;DHT22;69978;50.096;8.448;2023-06-04T14:53:05;30.50;77.00
31387;DHT22;69978;50.096;8.448;2023-06-04T14:55:33;30.30;74.60
31387;DHT22;69978;50.096;8.448;2023-06-04T14:57:59;30.30;76.60
31387;DHT22;69978;50.096;8.448;2023-06-04T15:00:25;30.10;75.80
31387;DHT22;69978;50.096;8.448;2023-06-04T15:02:50;30.10;76.30
31387;DHT22;69978;50.096;8.448;2023-06-04T15:05:16;29.90;77.00
31387;DHT22;69978;50.096;8.448;2023-06-04T15:07:41;29.70;75.90
31387;DHT22;69978;50.096;8.448;2023-06-04T15:10:07;29.60;75.20
31387;DHT22;69978;50.096;8.448;2023-06-04T15:12:34;29.40;75.90
31387;DHT22;69978;50.096;8.448;2023-06-04T15:15:04;29.20;76.20
31387;DHT22;69978;50.096;8.448;2023-06-04T15:17:30;29.30;78.50
31387;DHT22;69978;50.096;8.448;2023-06-04T15:19:56;29.30;78.50
31387;DHT22;69978;50.096;8.448;2023-06-04T15:22:21;29.30;77.40
31387;DHT22;69978;50.096;8.448;2023-06-04T15:24:48;29.10;78.40
31387;DHT22;69978;50.096;8.448;2023-06-04T15:27:14;29.10;79.00
31387;DHT22;69978;50.096;8.448;2023-06-04T15:29:39;29.00;78.70
31387;DHT22;69978;50.096;8.448;2023-06-04T15:32:05;28.90;78.60
31387;DHT22;69978;50.096;8.448;2023-06-04T15:34:30;28.90;79.50
31387;DHT22;69978;50.096;8.448;2023-06-04T15:36:56;28.80;78.90